Time;durP1;ratioP1;P1;durP2;ratioP2;P2;SDS_P1;SDS_P2;PMS_P1;PMS_P2;Temp;Humidity;BMP_temperature;BMP_pressure;BME280_temperature;BME280_humidity;BME280_pressure;Samples;Min_cycle;Max_cycle;Signal;HPM_P1;HPM_P2
2022/09/26 00:01:13;;;;;;;42.95;24.57;;;;;;;8.48;77.92;99569.05;1661321;85;27841;-68
2022/09/26 00:03:43;;;;;;;43.92;24.98;;;;;;;8.44;77.98;99572.11;1661477;85;25742;-70
2022/09/26 00:06:11;;;;;;;34.70;23.27;;;;;;;8.38;77.89;99565.26;1661451;85;27490;-69
2022/09/26 00:08:39;;;;;;;38.98;23.90;;;;;;;8.35;77.91;99564.53;1661175;85;25424;-70
2022/09/26 00:11:08;;;;;;;41.35;23.50;;;;;;;8.29;78.04;99563.06;1661378;85;25639;-69
2022/09/26 00:13:38;;;;;;;36.83;23.05;;;;;;;8.25;78.22;99558.06;1661435;86;26279;-69
2022/09/26 00:16:06;;;;;;;42.17;23.57;;;;;;;8.20;78.03;99550.34;1661217;86;25920;-69
2022/09/26 00:18:33;;;;;;;40.92;25.23;;;;;;;8.17;78.19;99556.38;1661333;85;27313;-70
2022/09/26 00:21:12;;;;;;;38.73;24.95;;;;;;;8.13;78.25;99548.66;1669743;85;25720;-69
2022/09/26 00:23:41;;;;;;;42.88;24.43;;;;;;;8.09;78.27;99543.66;1672794;84;25580;-69
2022/09/26 00:26:09;;;;;;;42.40;26.55;;;;;;;8.04;78.30;99541.89;1668397;84;26338;-69
2022/09/26 00:28:36;;;;;;;41.63;24.40;;;;;;;8.00;78.38;99540.12;1674489;84;25646;-67
2022/09/26 00:31:10;;;;;;;42.88;24.70;;;;;;;7.97;78.19;99534.03;1654721;85;27383;-69
2022/09/26 00:33:37;;;;;;;38.17;23.90;;;;;;;7.94;78.04;99538.13;1666294;84;25673;-69
2022/09/26 00:36:05;;;;;;;44.00;25.60;;;;;;;7.90;78.11;99525.05;1666042;84;25589;-69
2022/09/26 00:38:31;;;;;;;41.05;25.45;;;;;;;7.87;78.39;99528.35;1665468;84;25812;-69
2022/09/26 00:40:58;;;;;;;40.85;25.32;;;;;;;7.84;78.79;99525.71;1653807;84;25397;-69
2022/09/26 00:43:36;;;;;;;46.53;24.65;;;;;;;7.81;78.57;99528.23;1651770;86;27915;-69
2022/09/26 00:46:38;;;;;;;42.75;25.72;;;;;;;7.78;78.50;99531.00;1661587;85;25701;-69
2022/09/26 00:49:35;;;;;;;38.88;24.40;;;;;;;7.74;78.82;99527.88;1661642;85;25745;-67
2022/09/26 00:52:18;;;;;;;44.67;24.25;;;;;;;7.70;79.22;99529.05;1661596;86;26427;-69
2022/09/26 00:54:49;;;;;;;42.50;25.90;;;;;;;7.68;79.84;99524.53;1660612;85;25654;-68
2022/09/26 00:57:27;;;;;;;43.05;26.73;;;;;;;7.66;79.68;99538.30;1661846;85;27383;-68
2022/09/26 00:59:58;;;;;;;45.58;25.72;;;;;;;7.65;80.09;99531.88;1661575;85;25720;-68
2022/09/26 01:02:27;;;;;;;42.50;25.27;;;;;;;7.63;79.65;99532.17;1661638;85;25694;-68
2022/09/26 01:04:56;;;;;;;39.58;24.60;;;;;;;7.60;79.86;99538.17;1661734;85;26213;-67
2022/09/26 01:07:26;;;;;;;44.57;24.97;;;;;;;7.58;79.65;99538.25;1660836;85;25626;-67
2022/09/26 01:09:54;;;;;;;40.80;25.30;;;;;;;7.56;79.95;99531.01;1661637;85;27383;-67
2022/09/26 01:12:21;;;;;;;41.02;25.02;;;;;;;7.55;80.16;99529.44;1661404;86;25847;-67
2022/09/26 01:14:53;;;;;;;40.48;24.95;;;;;;;7.55;80.41;99526.75;1661622;86;25637;-67
2022/09/26 01:17:22;;;;;;;46.83;25.92;;;;;;;7.52;79.99;99530.05;1661605;85;25660;-68
2022/09/26 01:20:28;;;;;;;41.42;25.45;;;;;;;7.51;80.35;99527.91;1642917;85;25694;-67
2022/09/26 01:23:09;;;;;;;43.17;24.70;;;;;;;7.51;80.30;99529.79;1661703;85;27311;-67
2022/09/26 01:26:10;;;;;;;44.13;24.90;;;;;;;7.46;79.70;99524.78;1661625;86;25700;-67
2022/09/26 01:29:01;;;;;;;42.53;24.37;;;;;;;7.43;79.72;99519.23;1645992;85;25714;-68
2022/09/26 01:32:47;;;;;;;40.90;24.70;;;;;;;7.41;79.70;99517.41;1661684;86;25612;-69
2022/09/26 01:34:28;;;;;;;42.43;25.65;;;;;;;7.38;79.75;99518.80;1601624;89;25551;-67
2022/09/26 01:37:26;;;;;;;39.42;24.98;;;;;;;7.36;79.92;99512.14;1604784;89;27395;-67
2022/09/26 01:40:13;;;;;;;40.05;26.07;;;;;;;7.34;79.69;99514.32;1604629;87;25787;-69
2022/09/26 01:43:21;;;;;;;42.53;25.20;;;;;;;7.30;79.94;99511.45;1604797;87;25704;-68
2022/09/26 01:46:32;;;;;;;41.70;24.82;;;;;;;7.27;79.74;99508.84;1603578;88;25660;-68
2022/09/26 01:49:30;;;;;;;43.83;28.62;;;;;;;7.24;79.95;99501.38;1603811;87;25668;-69
2022/09/26 01:52:16;;;;;;;39.48;25.40;;;;;;;7.23;79.84;99503.02;1604707;87;27337;-68
2022/09/26 01:54:48;;;;;;;40.65;26.15;;;;;;;7.18;79.99;99499.89;1604661;86;25750;-69
2022/09/26 01:57:20;;;;;;;39.92;24.95;;;;;;;7.15;79.75;99495.15;1601682;87;25828;-69
2022/09/26 01:59:52;;;;;;;38.88;25.12;;;;;;;7.14;80.01;99496.80;1604745;89;25753;-68
2022/09/26 02:02:26;;;;;;;38.55;24.27;;;;;;;7.11;80.32;99497.63;1604780;87;25501;-68
2022/09/26 02:04:56;;;;;;;42.55;26.10;;;;;;;7.13;80.26;99497.88;1604793;87;26678;-67
2022/09/26 02:07:36;;;;;;;40.65;25.10;;;;;;;7.09;79.95;99500.39;1604607;87;25754;-69
2022/09/26 02:10:12;;;;;;;42.80;25.10;;;;;;;7.07;80.04;99498.56;1604924;87;25584;-67
2022/09/26 02:12:44;;;;;;;37.50;24.63;;;;;;;7.04;79.92;99499.95;1635075;87;25639;-68
2022/09/26 02:15:15;;;;;;;43.55;25.72;;;;;;;7.03;79.92;99501.07;1614315;88;25575;-70
2022/09/26 02:17:46;;;;;;;42.58;25.23;;;;;;;7.00;79.93;99504.36;1628145;86;27492;-68
2022/09/26 02:20:29;;;;;;;43.78;26.00;;;;;;;6.99;80.51;99502.76;1602949;88;25743;-68
2022/09/26 02:22:58;;;;;;;41.37;26.60;;;;;;;6.99;81.60;99500.63;1628474;87;25640;-67
2022/09/26 02:25:27;;;;;;;42.95;27.13;;;;;;;6.98;81.49;99503.88;1615021;87;26354;-67
2022/09/26 02:27:53;;;;;;;44.53;26.87;;;;;;;6.99;81.71;99502.76;1614833;87;25637;-67
2022/09/26 02:30:20;;;;;;;40.28;25.20;;;;;;;6.99;81.83;99505.45;1630865;87;27315;-68
2022/09/26 02:32:46;;;;;;;42.53;25.50;;;;;;;7.00;81.67;99502.20;1661542;85;25465;-68
2022/09/26 02:35:52;;;;;;;39.75;25.17;;;;;;;6.99;81.56;99500.63;1661620;86;25652;-68
2022/09/26 02:37:41;;;;;;;44.00;26.27;;;;;;;6.98;81.47;99505.22;1658954;86;25672;-70
2022/09/26 02:40:08;;;;;;;41.65;26.42;;;;;;;6.98;82.15;99497.16;1659302;85;25433;-69
2022/09/26 02:42:43;;;;;;;40.73;25.75;;;;;;;6.98;81.79;99497.16;1639877;86;27475;-68
2022/09/26 02:45:45;;;;;;;42.70;26.20;;;;;;;6.97;81.08;99500.93;1661150;84;25626;-68
2022/09/26 02:48:44;;;;;;;40.35;25.17;;;;;;;6.95;81.46;99500.44;1660656;85;25586;-67
2022/09/26 02:51:28;;;;;;;42.78;25.60;;;;;;;6.92;81.67;99492.42;1661250;85;25688;-69
2022/09/26 02:54:16;;;;;;;45.15;27.58;;;;;;;6.93;82.01;99495.92;1661009;85;25743;-67
2022/09/26 02:57:10;;;;;;;47.23;26.90;;;;;;;6.93;82.79;99502.64;1659687;85;29491;-67
2022/09/26 03:00:04;;;;;;;43.42;26.52;;;;;;;6.93;82.72;99498.61;1661584;85;25623;-68
2022/09/26 03:02:54;;;;;;;53.42;27.15;;;;;;;6.93;83.07;99491.89;1661738;85;25599;-68
2022/09/26 03:05:25;;;;;;;47.35;26.65;;;;;;;6.95;83.29;99495.06;1661718;86;25710;-66
2022/09/26 03:08:12;;;;;;;46.88;26.15;;;;;;;6.96;83.08;99491.27;1661746;85;25590;-67
2022/09/26 03:10:41;;;;;;;42.23;25.77;;;;;;;6.96;82.96;99492.60;1661159;85;27349;-68
2022/09/26 03:13:14;;;;;;;37.65;23.00;;;;;;;6.96;83.15;99487.23;1661777;85;25579;-68
2022/09/26 03:15:45;;;;;;;43.87;24.50;;;;;;;6.97;82.92;99489.39;1661728;85;25564;-69
2022/09/26 03:18:19;;;;;;;44.33;25.05;;;;;;;6.96;83.21;99488.57;1643740;85;25790;-69
2022/09/26 03:20:46;;;;;;;47.35;25.92;;;;;;;6.94;83.14;99489.43;1661800;86;25735;-68
2022/09/26 03:23:13;;;;;;;46.13;25.92;;;;;;;6.94;83.22;99483.27;1642907;85;27336;-68
2022/09/26 03:25:40;;;;;;;39.60;24.32;;;;;;;6.94;83.41;99485.95;1661692;85;25586;-67
2022/09/26 03:28:06;;;;;;;42.15;23.83;;;;;;;6.94;83.23;99484.05;1661658;85;25390;-68
2022/09/26 03:30:33;;;;;;;39.75;22.95;;;;;;;6.93;83.43;99483.83;1661737;85;25613;-68
2022/09/26 03:33:02;;;;;;;43.25;24.40;;;;;;;6.90;83.62;99476.36;1661693;85;25615;-68
2022/09/26 03:35:29;;;;;;;40.40;24.98;;;;;;;6.88;83.75;99473.98;1661661;86;27347;-67
2022/09/26 03:37:55;;;;;;;51.13;24.70;;;;;;;6.89;83.93;99480.14;1661643;86;25923;-67
2022/09/26 03:40:21;;;;;;;42.00;22.80;;;;;;;6.88;84.11;99471.84;1656268;86;25485;-68
2022/09/26 03:42:47;;;;;;;45.70;23.05;;;;;;;6.85;84.27;99473.23;1638421;86;27879;-68
2022/09/26 03:45:13;;;;;;;41.13;23.83;;;;;;;6.83;84.41;99464.69;1659266;86;25587;-67
2022/09/26 03:47:40;;;;;;;41.02;23.83;;;;;;;6.83;84.51;99459.30;1659304;86;27330;-67
2022/09/26 03:50:08;;;;;;;39.53;22.60;;;;;;;6.84;84.71;99455.50;1659210;86;25576;-68
2022/09/26 03:52:35;;;;;;;39.80;22.22;;;;;;;6.85;84.80;99457.66;1661659;85;25449;-67
2022/09/26 03:55:01;;;;;;;39.90;22.07;;;;;;;6.86;84.89;99459.23;1661554;85;27781;-68
2022/09/26 03:57:27;;;;;;;42.20;24.18;;;;;;;6.85;84.92;99457.11;1661781;85;25636;-68
2022/09/26 03:59:54;;;;;;;43.33;26.25;;;;;;;6.86;84.93;99460.05;1661775;85;27363;-68
2022/09/26 04:02:21;;;;;;;43.02;25.72;;;;;;;6.89;85.10;99461.31;1660583;85;25425;-68
2022/09/26 04:04:47;;;;;;;40.28;22.98;;;;;;;6.91;85.14;99463.15;1661063;85;25781;-68
2022/09/26 04:07:14;;;;;;;38.83;22.85;;;;;;;6.95;85.17;99466.02;1661236;85;25594;-68
2022/09/26 04:09:40;;;;;;;31.15;20.20;;;;;;;6.97;85.21;99459.81;1661770;86;25640;-68
2022/09/26 04:12:06;;;;;;;41.15;23.05;;;;;;;6.97;84.94;99463.84;1669265;85;27972;-68
2022/09/26 04:14:33;;;;;;;36.33;21.87;;;;;;;6.98;85.02;99457.35;1663644;85;25653;-68
2022/09/26 04:16:59;;;;;;;30.95;19.05;;;;;;;6.99;85.11;99458.39;1667194;84;25597;-67
2022/09/26 04:19:26;;;;;;;36.68;19.65;;;;;;;6.99;85.13;99454.92;1670929;85;25695;-67
2022/09/26 04:21:52;;;;;;;35.45;19.87;;;;;;;6.97;84.87;99457.12;1662478;84;32345;-68
2022/09/26 04:24:18;;;;;;;40.58;20.40;;;;;;;6.95;85.06;99452.05;1665346;85;28016;-67
2022/09/26 04:26:44;;;;;;;37.25;21.75;;;;;;;6.96;85.14;99456.87;1675375;85;25394;-67
2022/09/26 04:29:12;;;;;;;47.93;19.35;;;;;;;6.94;85.18;99457.17;1657633;85;25576;-68
2022/09/26 04:31:38;;;;;;;38.35;18.90;;;;;;;6.94;85.31;99459.07;1666195;84;25641;-67
2022/09/26 04:34:04;;;;;;;34.38;19.85;;;;;;;6.92;85.28;99459.37;1669281;85;25523;-68
2022/09/26 04:36:31;;;;;;;42.35;20.23;;;;;;;6.91;85.11;99462.63;1670105;85;27744;-67
2022/09/26 04:38:59;;;;;;;35.78;19.50;;;;;;;6.91;85.35;99463.96;1668804;84;25784;-67
2022/09/26 04:41:29;;;;;;;37.30;19.77;;;;;;;6.91;85.44;99461.80;1643124;85;25492;-67
2022/09/26 04:43:58;;;;;;;33.70;18.73;;;;;;;6.94;85.55;99460.41;1659042;85;25543;-68
2022/09/26 04:46:27;;;;;;;47.50;19.35;;;;;;;6.93;85.50;99465.01;1661862;86;25402;-67
2022/09/26 04:48:58;;;;;;;28.42;16.82;;;;;;;6.93;85.55;99467.70;1661585;86;27964;-67
2022/09/26 04:51:27;;;;;;;34.18;20.17;;;;;;;6.90;85.56;99458.89;1661574;85;25440;-67
2022/09/26 04:53:54;;;;;;;29.72;17.48;;;;;;;6.89;85.60;99459.98;1661744;85;28009;-67
2022/09/26 04:56:24;;;;;;;32.93;17.98;;;;;;;6.89;85.64;99457.28;1674239;85;25612;-67
2022/09/26 04:58:53;;;;;;;42.60;19.02;;;;;;;6.85;85.58;99453.63;1688285;85;25476;-67
2022/09/26 05:01:21;;;;;;;27.27;18.30;;;;;;;6.84;85.73;99461.44;1688476;84;27399;-67
2022/09/26 05:03:48;;;;;;;42.88;18.90;;;;;;;6.82;85.85;99457.70;1688073;84;25646;-67
2022/09/26 05:06:16;;;;;;;36.85;19.15;;;;;;;6.82;86.37;99456.92;1688226;85;25665;-67
2022/09/26 05:08:47;;;;;;;40.00;18.73;;;;;;;6.81;86.27;99452.63;1688146;84;25620;-68
2022/09/26 05:11:17;;;;;;;36.55;18.77;;;;;;;6.84;86.40;99450.69;1695545;84;25590;-69
2022/09/26 05:13:43;;;;;;;29.98;16.85;;;;;;;6.83;86.46;99447.21;1691997;83;29626;-69
2022/09/26 05:16:13;;;;;;;27.65;17.25;;;;;;;6.86;86.71;99446.61;1693325;83;25543;-69
2022/09/26 05:18:40;;;;;;;32.98;18.07;;;;;;;6.86;86.72;99442.58;1693592;83;25414;-69
2022/09/26 05:21:08;;;;;;;30.37;16.80;;;;;;;6.88;86.75;99435.00;1686583;84;25731;-68
2022/09/26 05:26:41;;;;;;;29.20;17.42;;;;;;;6.92;86.79;99443.24;1679627;83;27384;-69
2022/09/26 05:29:08;;;;;;;29.50;17.48;;;;;;;6.96;86.96;99444.20;1678614;83;25682;-67
2022/09/26 05:31:36;;;;;;;34.53;17.40;;;;;;;7.01;87.12;99446.78;1680890;83;25592;-69
2022/09/26 05:34:09;;;;;;;30.35;17.42;;;;;;;7.03;87.17;99441.91;1685041;83;25632;-69
2022/09/26 05:36:36;;;;;;;28.95;18.02;;;;;;;7.06;87.21;99443.96;1681598;83;25427;-70
2022/09/26 05:40:55;;;;;;;31.60;16.62;;;;;;;7.09;87.39;99439.88;1677530;83;27424;-70
2022/09/26 05:41:33;;;;;;;26.33;17.10;;;;;;;7.14;87.42;99439.76;1658830;84;25605;-69
2022/09/26 05:43:59;;;;;;;28.05;17.57;;;;;;;7.16;87.61;99434.86;1689248;84;25757;-69
2022/09/26 05:46:28;;;;;;;30.20;16.97;;;;;;;7.21;87.45;99437.42;1695015;83;25742;-68
2022/09/26 05:48:56;;;;;;;25.05;16.77;;;;;;;7.24;87.65;99432.00;1687326;85;25749;-68
2022/09/26 05:51:23;;;;;;;28.52;17.32;;;;;;;7.27;87.63;99428.67;1682537;83;27341;-67
2022/09/26 05:53:49;;;;;;;29.02;17.90;;;;;;;7.35;88.34;99430.62;1658631;86;25567;-67
2022/09/26 05:56:18;;;;;;;30.68;17.55;;;;;;;7.43;88.26;99431.78;1699466;84;25488;-67
2022/09/26 05:58:44;;;;;;;33.48;18.25;;;;;;;7.51;88.26;99424.84;1674210;84;25741;-67
2022/09/26 06:01:15;;;;;;;30.68;17.17;;;;;;;7.57;88.33;99425.74;1696243;84;25653;-68
2022/09/26 06:03:44;;;;;;;31.62;17.65;;;;;;;7.61;87.94;99424.04;1692453;84;27338;-67
2022/09/26 06:06:16;;;;;;;30.95;17.80;;;;;;;7.66;88.18;99420.39;1680220;84;25469;-67
2022/09/26 06:08:44;;;;;;;26.10;17.67;;;;;;;7.76;88.60;99419.33;1687978;84;25622;-67
2022/09/26 06:11:14;;;;;;;33.13;19.27;;;;;;;7.86;88.93;99417.70;1671417;84;26337;-67
2022/09/26 06:13:44;;;;;;;29.70;18.65;;;;;;;7.97;89.13;99419.58;1672539;84;25715;-68
2022/09/26 06:16:17;;;;;;;32.00;18.25;;;;;;;8.09;89.28;99421.11;1672076;84;27392;-67
2022/09/26 06:18:44;;;;;;;30.70;19.62;;;;;;;8.20;89.57;99412.95;1675635;84;26425;-68
2022/09/26 06:21:13;;;;;;;33.95;19.92;;;;;;;8.33;89.63;99417.20;1679362;84;25650;-67
2022/09/26 06:23:39;;;;;;;29.25;18.85;;;;;;;8.45;89.49;99418.74;1679827;84;25749;-68
2022/09/26 06:28:58;;;;;;;32.38;20.02;;;;;;;8.65;88.73;99422.72;1643477;86;27364;-68
2022/09/26 06:31:26;;;;;;;34.08;19.95;;;;;;;8.69;88.25;99422.31;1636317;86;25729;-67
2022/09/26 06:33:54;;;;;;;29.52;18.57;;;;;;;8.75;88.08;99422.94;1638482;86;25845;-67
2022/09/26 06:36:23;;;;;;;37.83;21.55;;;;;;;8.75;87.62;99423.75;1604876;88;26320;-69
2022/09/26 06:38:50;;;;;;;38.25;22.73;;;;;;;8.80;88.25;99421.43;1619258;87;25879;-69
2022/09/26 06:41:16;;;;;;;39.50;23.25;;;;;;;8.86;87.98;99425.56;1620245;87;27040;-68
2022/09/26 06:43:45;;;;;;;41.68;21.05;;;;;;;8.94;87.83;99426.12;1621020;88;25647;-68
2022/09/26 06:46:13;;;;;;;33.63;19.77;;;;;;;8.94;87.29;99428.03;1620891;88;25769;-68
2022/09/26 06:48:40;;;;;;;35.73;20.60;;;;;;;8.94;86.99;99430.73;1620619;88;26231;-69
2022/09/26 06:51:08;;;;;;;38.08;19.73;;;;;;;8.97;87.43;99433.58;1621111;88;25842;-68
2022/09/26 06:53:34;;;;;;;38.45;21.73;;;;;;;9.04;87.62;99429.59;1620711;88;27452;-69
2022/09/26 06:56:01;;;;;;;32.93;20.77;;;;;;;9.10;87.64;99431.80;1618006;87;26078;-69
2022/09/26 06:58:28;;;;;;;36.38;21.17;;;;;;;9.15;87.45;99437.59;1620993;88;25683;-70
2022/09/26 07:00:55;;;;;;;39.30;22.73;;;;;;;9.21;87.56;99432.81;1658220;85;25977;-70
2022/09/26 07:03:24;;;;;;;41.98;25.65;;;;;;;9.24;87.28;99436.23;1685006;85;25742;-68
2022/09/26 07:05:50;;;;;;;41.23;23.30;;;;;;;9.23;87.18;99438.14;1652602;85;28217;-69
2022/09/26 07:08:16;;;;;;;38.13;23.80;;;;;;;9.25;87.33;99443.22;1645780;85;25613;-69
2022/09/26 07:10:42;;;;;;;39.08;21.95;;;;;;;9.30;87.66;99434.39;1657481;84;25574;-69
2022/09/26 07:13:09;;;;;;;42.88;22.98;;;;;;;9.39;87.90;99434.37;1651067;85;25657;-69
2022/09/26 07:15:36;;;;;;;42.13;25.08;;;;;;;9.53;88.99;99441.72;1647421;87;25630;-69
2022/09/26 07:18:05;;;;;;;39.90;23.30;;;;;;;9.69;89.02;99439.84;1647195;85;28180;-69
2022/09/26 07:20:36;;;;;;;37.17;23.38;;;;;;;9.77;88.32;99443.61;1645950;87;25704;-69
2022/09/26 07:23:05;;;;;;;41.90;23.35;;;;;;;9.97;90.07;99439.41;1655881;85;25738;-70
2022/09/26 07:25:32;;;;;;;42.40;24.23;;;;;;;10.19;89.66;99441.03;1700291;84;26263;-70
2022/09/26 07:28:00;;;;;;;42.27;24.10;;;;;;;10.29;88.58;99441.44;1675497;84;25898;-70
2022/09/26 07:30:27;;;;;;;39.63;23.27;;;;;;;10.40;88.46;99436.49;1683726;84;27314;-69
2022/09/26 07:33:02;;;;;;;39.67;23.40;;;;;;;10.49;88.02;99440.48;1673753;85;25758;-69
2022/09/26 07:35:32;;;;;;;39.88;23.38;;;;;;;10.59;87.76;99436.03;1701290;84;25602;-70
2022/09/26 07:37:58;;;;;;;;;;;;;;;10.69;87.12;99437.53;1674767;84;25668;-69
2022/09/26 07:40:25;;;;;;;43.08;35.25;;;;;;;10.71;86.91;99445.31;1678099;84;25616;-70
2022/09/26 07:42:52;;;;;;;40.90;26.68;;;;;;;10.77;87.18;99436.67;1683513;84;27332;-69
2022/09/26 07:50:10;;;;;;;47.00;27.02;;;;;;;10.82;86.90;99436.47;1654087;85;26352;-69
2022/09/26 07:50:35;;;;;;;52.35;32.67;;;;;;;10.94;86.50;99435.73;1648103;87;26322;-70
2022/09/26 07:53:02;;;;;;;55.67;38.75;;;;;;;10.99;86.70;99431.47;1649083;86;25576;-69
2022/09/26 07:55:28;;;;;;;109.22;99.30;;;;;;;11.04;86.52;99441.31;1648193;87;27379;-70
2022/09/26 07:57:55;;;;;;;107.43;97.78;;;;;;;11.02;86.25;99434.88;1648190;87;25569;-69
2022/09/26 08:00:21;;;;;;;108.20;98.22;;;;;;;11.09;86.35;99436.26;1647750;87;25498;-70
2022/09/26 08:02:49;;;;;;;107.30;97.55;;;;;;;11.16;87.08;99430.52;1674343;85;25606;-70
2022/09/26 08:05:18;;;;;;;110.52;99.97;;;;;;;11.28;87.49;99429.77;1651922;85;25653;-71
2022/09/26 08:07:48;;;;;;;54.75;30.65;;;;;;;11.45;87.50;99434.78;1673378;84;28035;-70
2022/09/26 08:10:22;;;;;;;49.67;28.05;;;;;;;11.57;87.37;99437.50;1672578;84;25651;-67
2022/09/26 08:12:48;;;;;;;51.30;29.18;;;;;;;11.70;87.36;99435.04;1675181;84;25729;-68
2022/09/26 08:15:16;;;;;;;53.68;28.83;;;;;;;11.93;88.42;99439.47;1672452;84;26446;-68
2022/09/26 08:17:42;;;;;;;59.80;29.52;;;;;;;12.12;87.36;99436.22;1681872;84;25766;-69
2022/09/26 08:20:09;;;;;;;59.93;29.98;;;;;;;12.28;86.94;99432.23;1701390;83;27728;-70
2022/09/26 08:22:36;;;;;;;58.80;29.82;;;;;;;12.41;86.47;99431.66;1697885;84;25656;-68
2022/09/26 08:25:05;;;;;;;54.30;32.48;;;;;;;12.66;87.04;99434.30;1701514;84;25768;-68
2022/09/26 08:27:33;;;;;;;49.55;27.65;;;;;;;13.07;88.54;99431.77;1696133;83;26169;-68
2022/09/26 08:30:01;;;;;;;56.77;30.23;;;;;;;13.55;88.36;99432.45;1685882;84;25578;-68
2022/09/26 08:32:30;;;;;;;52.88;32.20;;;;;;;14.18;88.06;99433.79;1686085;84;27359;-68
2022/09/26 08:34:56;;;;;;;49.88;29.32;;;;;;;14.59;84.45;99438.17;1682982;84;25875;-69
2022/09/26 08:37:26;;;;;;;49.67;28.50;;;;;;;15.03;85.53;99438.67;1683981;84;26074;-67
2022/09/26 08:39:53;;;;;;;50.58;31.02;;;;;;;15.68;85.25;99428.38;1685299;84;27072;-68
2022/09/26 08:42:37;;;;;;;53.20;34.48;;;;;;;16.38;83.29;99430.43;1670977;84;25766;-69
2022/09/26 08:48:57;;;;;;;41.85;30.85;;;;;;;17.31;79.53;99431.34;1665028;84;25587;-70
2022/09/26 08:51:35;;;;;;;43.30;29.30;;;;;;;18.10;78.45;99430.09;1679185;84;25406;-69
2022/09/26 08:54:18;;;;;;;41.48;27.00;;;;;;;18.92;76.81;99427.59;1687446;84;25966;-69
2022/09/26 08:56:59;;;;;;;39.98;27.05;;;;;;;19.54;73.15;99424.39;1669286;84;25451;-70
2022/09/26 08:59:31;;;;;;;46.13;28.42;;;;;;;20.05;71.43;99419.10;1682200;84;27402;-70
2022/09/26 09:02:02;;;;;;;41.92;28.20;;;;;;;20.14;66.94;99423.62;1675449;84;25639;-69
2022/09/26 09:05:07;;;;;;;42.13;29.15;;;;;;;20.14;66.08;99411.27;1688397;84;25710;-70
2022/09/26 09:07:33;;;;;;;35.70;26.15;;;;;;;20.23;64.31;99408.70;1667954;84;25615;-68
2022/09/26 09:10:04;;;;;;;35.92;27.93;;;;;;;20.40;64.81;99406.49;1663724;84;25683;-72
2022/09/26 09:12:54;;;;;;;35.78;27.75;;;;;;;20.71;65.63;99395.80;1672422;84;27291;-70
2022/09/26 09:15:44;;;;;;;34.90;27.70;;;;;;;21.08;63.99;99405.44;1677861;84;25551;-69
2022/09/26 09:18:28;;;;;;;33.70;26.60;;;;;;;21.33;60.71;99404.48;1674810;84;25699;-71
2022/09/26 09:21:28;;;;;;;29.80;25.25;;;;;;;21.33;60.95;99393.48;1674998;84;27062;-69
2022/09/26 09:24:25;;;;;;;31.42;24.98;;;;;;;21.43;59.83;99390.64;1673982;84;25722;-70
2022/09/26 09:27:29;;;;;;;30.95;24.82;;;;;;;21.54;57.81;99377.43;1676726;84;27305;-69
2022/09/26 09:30:13;;;;;;;25.43;21.50;;;;;;;21.59;58.50;99383.30;1676458;84;25669;-69
2022/09/26 09:33:02;;;;;;;25.37;20.08;;;;;;;21.81;57.58;99370.70;1656775;84;25611;-69
2022/09/26 09:35:42;;;;;;;22.90;19.57;;;;;;;21.90;55.52;99377.91;1680977;84;25733;-68
2022/09/26 09:38:19;;;;;;;23.12;17.87;;;;;;;21.96;55.99;99374.11;1689024;84;25695;-68
2022/09/26 09:41:05;;;;;;;22.45;17.35;;;;;;;22.08;54.47;99375.56;1682458;84;27344;-69
2022/09/26 09:43:53;;;;;;;24.37;18.20;;;;;;;22.22;55.05;99366.36;1679841;84;25715;-70
2022/09/26 09:46:28;;;;;;;21.40;18.10;;;;;;;22.48;54.14;99362.17;1658815;84;25678;-70
2022/09/26 09:49:20;;;;;;;23.07;17.10;;;;;;;22.76;53.06;99373.41;1660923;84;26196;-70
2022/09/26 09:52:08;;;;;;;21.90;15.55;;;;;;;22.83;52.92;99363.69;1680483;84;25697;-70
2022/09/26 09:54:52;;;;;;;19.32;15.83;;;;;;;23.53;53.55;99356.74;1657857;85;27269;-72
2022/09/26 09:57:29;;;;;;;17.45;14.98;;;;;;;24.12;52.65;99354.53;1656658;84;25876;-71
2022/09/26 10:00:20;;;;;;;17.15;14.83;;;;;;;24.59;51.36;99350.27;1689041;84;25624;-69
2022/09/26 10:03:23;;;;;;;23.35;19.82;;;;;;;24.79;49.76;99355.16;1688408;83;25747;-70
2022/09/26 10:05:57;;;;;;;18.77;16.37;;;;;;;24.86;47.98;99345.13;1677339;84;25728;-70
2022/09/26 10:08:41;;;;;;;19.57;16.30;;;;;;;25.07;49.54;99352.17;1685298;84;29539;-68
2022/09/26 10:11:40;;;;;;;16.15;13.85;;;;;;;25.43;48.38;99347.19;1681822;84;25783;-69
2022/09/26 10:14:17;;;;;;;16.80;14.78;;;;;;;25.56;48.16;99350.81;1684909;84;25608;-70
2022/09/26 10:17:12;;;;;;;16.20;13.22;;;;;;;26.13;47.91;99347.16;1673202;84;25619;-70
2022/09/26 10:19:43;;;;;;;15.80;13.35;;;;;;;26.42;46.48;99347.73;1681567;84;25444;-70
2022/09/26 10:22:34;;;;;;;15.18;13.28;;;;;;;26.55;45.61;99342.99;1683149;84;27333;-73
2022/09/26 10:25:09;;;;;;;16.35;13.72;;;;;;;26.78;45.05;99341.95;1684242;84;25812;-72
2022/09/26 10:27:39;;;;;;;15.55;13.03;;;;;;;27.11;43.85;99339.55;1687999;84;25664;-73
2022/09/26 10:30:25;;;;;;;17.65;13.40;;;;;;;27.60;43.74;99343.33;1667098;84;26191;-74
2022/09/26 10:32:59;;;;;;;16.10;13.22;;;;;;;27.91;42.19;99346.20;1691877;84;25481;-72
2022/09/26 10:35:30;;;;;;;15.00;13.32;;;;;;;27.89;41.82;99338.14;1672541;84;27407;-72
2022/09/26 10:38:07;;;;;;;17.45;14.07;;;;;;;28.22;41.91;99341.36;1674448;84;25652;-73
2022/09/26 10:40:46;;;;;;;17.75;13.10;;;;;;;28.38;40.44;99340.38;1675594;84;25701;-72
2022/09/26 10:43:36;;;;;;;13.40;11.65;;;;;;;28.40;41.17;99333.77;1679062;84;26297;-72
2022/09/26 10:46:21;;;;;;;13.58;11.60;;;;;;;28.57;38.91;99327.99;1684494;83;25780;-73
2022/09/26 10:48:52;;;;;;;12.65;11.38;;;;;;;28.50;39.36;99327.62;1672636;84;27487;-72
2022/09/26 10:51:43;;;;;;;13.60;11.80;;;;;;;28.69;39.29;99324.36;1656065;85;25416;-73
2022/09/26 10:54:23;;;;;;;14.00;12.37;;;;;;;29.11;39.44;99328.67;1661858;84;25658;-71
2022/09/26 10:56:56;;;;;;;12.63;11.33;;;;;;;29.28;37.43;99321.63;1666726;84;26228;-71
2022/09/26 10:59:26;;;;;;;13.32;11.20;;;;;;;29.26;37.71;99318.53;1652837;85;25410;-71
2022/09/26 11:01:57;;;;;;;13.88;11.10;;;;;;;29.36;36.91;99322.87;1653111;85;27891;-71
2022/09/26 11:07:32;;;;;;;14.45;11.70;;;;;;;28.48;35.74;99322.51;1653041;85;25735;-71
2022/09/26 11:10:04;;;;;;;13.38;11.53;;;;;;;27.77;35.79;99320.33;1669029;85;25622;-72
2022/09/26 11:12:38;;;;;;;13.40;11.05;;;;;;;27.50;35.61;99315.31;1614714;86;25645;-70
2022/09/26 11:15:12;;;;;;;11.63;10.40;;;;;;;27.19;36.01;99327.78;1674444;84;27377;-71
2022/09/26 11:17:51;;;;;;;12.98;11.08;;;;;;;26.90;36.51;99324.34;1681843;84;25720;-71
2022/09/26 11:20:44;;;;;;;13.80;11.60;;;;;;;26.71;37.54;99319.19;1657659;84;25715;-71
2022/09/26 11:23:22;;;;;;;14.75;11.40;;;;;;;27.18;37.93;99317.12;1688740;84;25632;-71
2022/09/26 11:26:20;;;;;;;12.55;10.58;;;;;;;27.13;37.64;99326.01;1674872;84;25691;-71
2022/09/26 11:29:03;;;;;;;13.70;10.65;;;;;;;26.84;36.92;99313.03;1669571;83;27328;-73
2022/09/26 11:31:35;;;;;;;10.68;9.58;;;;;;;26.37;37.15;99320.55;1616526;87;25908;-72
2022/09/26 11:34:04;;;;;;;10.78;9.63;;;;;;;26.09;36.96;99315.39;1608194;88;25722;-72
2022/09/26 11:37:15;;;;;;;11.97;9.48;;;;;;;26.01;37.74;99311.88;1623459;88;25686;-71
2022/09/26 11:39:53;;;;;;;11.43;10.25;;;;;;;25.89;37.42;99311.97;1621260;87;25820;-70
2022/09/26 11:42:33;;;;;;;11.65;9.38;;;;;;;25.67;37.56;99302.08;1596986;88;27147;-68
2022/09/26 11:45:11;;;;;;;11.30;10.18;;;;;;;25.70;38.50;99303.36;1545243;91;27248;-69
2022/09/26 11:48:13;;;;;;;9.90;8.90;;;;;;;26.11;39.10;99296.17;1541733;92;26419;-69
2022/09/26 11:51:21;;;;;;;13.13;8.78;;;;;;;26.78;38.62;99294.80;1546243;92;25780;-67
2022/09/26 11:54:25;;;;;;;9.75;8.65;;;;;;;27.18;38.33;99297.07;1518940;94;33189;-71
2022/09/26 11:57:27;;;;;;;9.60;7.30;;;;;;;27.24;35.79;99296.50;1543978;92;27367;-68
2022/09/26 12:00:27;;;;;;;12.93;8.40;;;;;;;27.06;36.04;99296.48;1521613;94;25808;-68
2022/09/26 12:03:32;;;;;;;13.60;9.20;;;;;;;27.23;35.90;99298.52;1575799;90;25832;-68
2022/09/26 12:06:33;;;;;;;12.25;8.43;;;;;;;27.10;35.75;99292.20;1573947;90;25810;-71
2022/09/26 12:09:11;;;;;;;8.33;7.47;;;;;;;27.09;35.78;99290.05;1573122;90;25723;-72
2022/09/26 12:12:02;;;;;;;8.38;6.90;;;;;;;26.95;35.85;99282.97;1540308;92;27358;-71